Time;durP1;ratioP1;P1;durP2;ratioP2;P2;SDS_P1;SDS_P2;PMS_P1;PMS_P2;Temp;Humidity;BMP_temperature;BMP_pressure;BME280_temperature;BME280_humidity;BME280_pressure;Samples;Min_cycle;Max_cycle;Signal;HPM_P1;HPM_P2
2023/09/14 00:07:01;;;;;;;28.33;24.27;;;18.30;99.90;;;;;;5729911;24;20903;-85
2023/09/14 00:31:58;;;;;;;28.50;24.43;;;18.10;99.90;;;;;;5695808;24;20744;-83
2023/09/14 00:51:58;;;;;;;31.67;25.27;;;18.20;99.90;;;;;;5629551;24;20800;-84
2023/09/14 01:07:42;;;;;;;26.83;23.43;;;18.30;99.90;;;;;;5618094;24;20191;-84
2023/09/14 01:48:27;;;;;;;24.47;21.17;;;18.40;99.90;;;;;;5781631;24;20269;-83
2023/09/14 02:13:07;;;;;;;22.97;20.47;;;18.50;99.90;;;;;;5664640;24;20779;-81
2023/09/14 03:04:28;;;;;;;18.57;15.90;;;18.40;99.90;;;;;;5762078;24;20215;-85
2023/09/14 03:29:52;;;;;;;15.53;13.93;;;18.30;99.90;;;;;;5802119;23;20237;-82
2023/09/14 03:55:15;;;;;;;12.93;11.63;;;18.30;99.90;;;;;;5671677;24;20233;-81
2023/09/14 04:25:00;;;;;;;13.43;12.03;;;18.30;99.90;;;;;;5673830;24;21138;-86
2023/09/14 04:45:42;;;;;;;9.80;8.90;;;18.30;99.90;;;;;;5673458;24;20182;-87
2023/09/14 05:46:47;;;;;;;9.17;8.23;;;18.40;99.90;;;;;;5695826;24;20398;-84
2023/09/14 07:02:51;;;;;;;4.07;3.67;;;19.50;99.90;;;;;;5773820;24;20225;-85
2023/09/14 07:38:00;;;;;;;3.50;2.90;;;20.10;99.90;;;;;;6001904;23;20730;-82
2023/09/14 08:03:44;;;;;;;4.22;2.47;;;20.70;99.90;;;;;;5913731;23;20241;-86
2023/09/14 08:39:20;;;;;;;1.70;1.60;;;21.00;93.50;;;;;;5973518;23;20778;-88
2023/09/14 08:43:40;;;;;;;1.50;1.40;;;20.70;94.30;;;;;;5940897;23;20190;-82
2023/09/14 09:04:02;;;;;;;2.35;1.30;;;21.20;90.40;;;;;;5921235;23;20632;-87
2023/09/14 09:34:38;;;;;;;1.23;1.13;;;21.60;86.50;;;;;;6015487;23;20196;-84
2023/09/14 09:55:16;;;;;;;1.95;1.30;;;22.10;85.60;;;;;;5883727;23;20246;-85
2023/09/14 10:15:39;;;;;;;2.90;1.30;;;21.90;87.00;;;;;;5881193;23;21177;-84
2023/09/14 10:40:23;;;;;;;3.10;2.15;;;21.70;89.20;;;;;;6053585;22;20418;-85
2023/09/14 11:36:53;;;;;;;1.05;0.95;;;22.40;84.90;;;;;;5949988;23;20199;-83
2023/09/14 11:41:16;;;;;;;2.72;0.80;;;22.50;83.20;;;;;;5830021;23;20553;-85
2023/09/14 12:02:13;;;;;;;1.38;1.10;;;22.50;84.00;;;;;;5979292;23;20194;-86
2023/09/14 12:27:20;;;;;;;2.80;1.30;;;21.00;95.00;;;;;;6032224;23;20169;-89
2023/09/14 13:23:16;;;;;;;1.70;1.00;;;22.20;87.20;;;;;;5842237;23;20852;-90
2023/09/14 13:48:09;;;;;;;1.20;1.05;;;21.90;86.90;;;;;;5719805;24;20507;-84
2023/09/14 14:29:18;;;;;;;3.38;1.48;;;20.90;90.80;;;;;;5653676;24;20229;-88
2023/09/14 15:45:22;;;;;;;1.63;1.52;;;21.00;90.10;;;;;;5725384;24;20197;-86
2023/09/14 16:10:48;;;;;;;2.80;1.63;;;20.80;85.60;;;;;;5978130;23;20399;-86
2023/09/14 16:41:03;;;;;;;1.50;1.27;;;20.40;87.90;;;;;;5871570;24;20247;-83
2023/09/14 17:21:43;;;;;;;3.50;2.43;;;18.90;95.70;;;;;;5763882;24;20230;-86
2023/09/14 17:47:08;;;;;;;3.77;1.70;;;18.80;94.20;;;;;;5941570;23;20176;-84
2023/09/14 18:12:37;;;;;;;2.73;2.00;;;18.70;93.40;;;;;;5910318;23;20308;-87
2023/09/14 18:16:58;;;;;;;3.90;2.10;;;18.80;92.70;;;;;;5832787;24;20609;-84
2023/09/14 19:18:24;;;;;;;3.70;2.17;;;18.70;94.00;;;;;;5804094;23;20209;-88
2023/09/14 19:38:27;;;;;;;3.03;2.13;;;17.90;99.90;;;;;;5708628;24;20673;-86
2023/09/14 20:29:29;;;;;;;2.97;2.63;;;17.30;99.90;;;;;;5867240;23;20508;-85
2023/09/14 20:59:59;;;;;;;2.87;2.33;;;16.60;99.90;;;;;;5866688;23;20510;-86
2023/09/14 21:34:48;;;;;;;3.23;2.67;;;15.70;99.90;;;;;;4811511;28;20213;-86
2023/09/14 21:55:44;;;;;;;3.47;2.30;;;15.20;99.90;;;;;;4882996;28;21087;-86
2023/09/14 22:21:09;;;;;;;3.73;2.20;;;14.70;99.90;;;;;;4747208;29;20389;-86
2023/09/14 22:41:17;;;;;;;2.67;2.40;;;14.30;99.90;;;;;;4642443;30;20249;-87
2023/09/14 23:11:42;;;;;;;3.10;2.57;;;13.90;99.90;;;;;;4828714;28;20203;-87
2023/09/14 23:37:14;;;;;;;2.90;1.80;;;13.60;99.90;;;;;;4746762;29;20665;-87
2023/09/14 23:57:13;;;;;;;3.03;1.83;;;13.40;99.90;;;;;;4658565;29;20221;-85
